Pagina principale
METAR-TAF:

METAR-TAF

Aeroporti :

Aeroporto Internazionale di Kansas City

Kansas City, Missouri, Stati Uniti

latitudine: 39-17-50N, longitudine: 094-43-50W, altezza: 312 m

Osservazione

Il bollettino è stato emesso 34 minuti fa, alle 07:53 UTC
Vento 5 kt da nord/nord-est
Temperature 21°C
Umidità 88%
Pressione 1018 hPa
Visibilità: 14.5 km
Cielo sereno

METAR: KMCI 180753Z 02005KT 9SM CLR 21/19 A3007 RMK AO2 SLP170 T02060189

Ora: 03:27 (08:27 UTC)

Previsione

Il bollettino è stato emesso 3 ore e 7 minuti fa, alle 05:20 UTC
Previsione valida dal 18 alle 06 UTC al 19 alle 06 UTC
Vento 6 kt da nord
Visibilità: 10 km
Poco nuvoloso ad un'altezza di 25000 ft

TAF: KMCI 180520Z 1806/1906 35006KT P6SM FEW250

Osservazioni e previsioni meteorologiche di più di 4000 aeroporti (messaggi METAR e TAF).

Le stazioni disponibili sono rappresentate dai dischi gialli e rossi sulla carta.

Puntare il mouse per vedere il nome della stazione.

Clicca sopra per visualizzare le osservazioni e previsioni meteorologiche.

Per cambiare la mappa : fare clic sui pulsanti verdi con una croce nera per ingrandire, il pulsante verde con un trattino per diminuire, o sulla freccia verde per le mappe adiacenti.


METAR-TAF: